Flight Track Log - Related Links

Times and Time Zones

All times are in EST time to prevent confusion due to time zone crossing. See the JBU504 flight status page for this flight to view local times or setup timezone preferences in your user account.

Time Position Orientation Groundspeed Altitude Reporting Facility
EST Latitude Longitude Course Direction KTS MPH feet Rate Location/Type
Thu 10:12:26 PM 18.4667 -65.9667 317° Northwest 180 207 1,700  Level San Juan Center
Thu 10:13:27 PM 18.5167 -66.0167 317° Northwest 260 299 3,600 2,727 Climbing San Juan Center
Thu 10:14:00 PM 18.6821 -66.2320 317° Northwest  Level FlightAware Approximate
Thu 10:14:27 PM 18.5833 -66.0667 325° Northwest 280 322 7,200  Level San Juan Center
Thu 10:15:00 PM 18.7631 -66.3131 317° Northwest  Level FlightAware Approximate
Thu 10:15:27 PM 18.6333 -66.1167 317° Northwest 300 345 9,500  Level San Juan Center
Thu 10:16:00 PM 18.8442 -66.3942 317° Northwest  Level FlightAware Approximate
Thu 10:16:28 PM 18.7000 -66.1833 317° Northwest 340 391 11,100  Level San Juan Center
Thu 10:17:00 PM 18.9253 -66.4753 317° Northwest  Level FlightAware Approximate
Thu 10:17:28 PM 18.7833 -66.2500 323° Northwest 380 437 13,300  Level San Juan Center
Thu 10:18:28 PM 18.8667 -66.3333 317° Northwest 390 449 15,700 2,331 Climbing San Juan Center
Thu 10:19:29 PM 18.9500 -66.4000 323° Northwest 390 449 18,000 2,132 Climbing San Juan Center
Thu 10:20:29 PM 19.0333 -66.4833 317° Northwest 390 449 20,000 1,884 Climbing San Juan Center
Thu 10:21:30 PM 19.1333 -66.5667 322° Northwest 410 472 21,800 1,600 Climbing San Juan Center
Thu 10:22:29 PM 19.2167 -66.6333 323° Northwest 410 472 23,200 1,500 Climbing San Juan Center
Thu 10:23:30 PM 19.3000 -66.7167 317° Northwest 430 495 24,800 1,537 Climbing San Juan Center
Thu 10:24:30 PM 19.4000 -66.8000 322° Northwest 440 506 26,300 1,450 Climbing San Juan Center
Thu 10:25:30 PM 19.4833 -66.8833 317° Northwest 450 518 27,700 1,240 Climbing San Juan Center
Thu 10:26:31 PM 19.5833 -66.9833 317° Northwest 450 518 28,800 1,091 Climbing San Juan Center
Thu 10:27:31 PM 19.6833 -67.0667 322° Northwest 450 518 29,900 1,450 Climbing San Juan Center
Thu 10:28:31 PM 19.7833 -67.1500 322° Northwest 450 518 31,700 1,537 Climbing San Juan Center
Thu 10:29:32 PM 19.8667 -67.2333 317° Northwest 450 518 33,000 1,339 Climbing San Juan Center
Thu 10:30:32 PM 19.9667 -67.3167 322° Northwest 440 506 34,400 1,250 Climbing San Juan Center
Thu 10:31:32 PM 20.0500 -67.4000 317° Northwest 430 495 35,500 1,091 Climbing San Juan Center
Thu 10:32:33 PM 20.1500 -67.4833 322° Northwest 420 483 36,600 1,091 Climbing San Juan Center
Thu 10:33:33 PM 20.2333 -67.5667 317° Northwest 420 483 37,700 700 Climbing San Juan Center
Thu 10:34:33 PM 20.3167 -67.6500 317° Northwest 410 472 38,000 149 Climbing San Juan Center
Thu 10:35:34 PM 20.4167 -67.7333 322° Northwest 420 483 38,000  Level San Juan Center
Thu 10:36:34 PM 20.5000 -67.8167 317° Northwest 410 472 38,000  Level San Juan Center
Thu 10:37:18 PM 20.5669 -67.8781 319° Northwest 485 558 38,000  Level Miami Center
Thu 10:38:18 PM 20.6589 -67.9603 320° Northwest 445 512 38,000  Level Miami Center
Thu 10:39:20 PM 20.7486 -68.0364 322° Northwest 427 491 38,000  Level Miami Center
Thu 10:40:18 PM 20.8497 -68.0917 333° Northwest 422 486 38,000  Level Miami Center
Thu 10:41:18 PM 20.9639 -68.1244 345° North 416 479 38,000  Level Miami Center
Thu 10:42:18 PM 21.0778 -68.1525 347° North 416 479 38,000  Level Miami Center
Thu 10:43:19 PM 21.1856 -68.1811 346° North 411 473 38,000  Level Miami Center
Thu 10:44:18 PM 21.3100 -68.2064 349° North 441 507 38,000  Level Miami Center
Thu 10:45:20 PM 21.4303 -68.2342 348° North 431 496 38,000  Level Miami Center
Thu 10:46:18 PM 21.5442 -68.2625 347° North 426 490 38,000  Level Miami Center
Thu 10:47:18 PM 21.6686 -68.2900 348° North 426 490 38,000  Level Miami Center
Thu 10:48:20 PM 21.7806 -68.3186 347° North 426 490 38,000  Level Miami Center
Thu 10:49:18 PM 21.9008 -68.3467 348° North 432 497 38,000  Level Miami Center
Thu 10:50:20 PM 22.0150 -68.3750 347° North 432 497 38,000  Level Miami Center
Thu 10:51:20 PM 22.1308 -68.4011 348° North 432 497 38,000  Level Miami Center
Thu 10:52:18 PM 22.2514 -68.4314 347° North 432 497 38,000  Level Miami Center
Thu 10:53:19 PM 22.3717 -68.4594 348° North 437 503 38,000  Level Miami Center
Thu 10:54:18 PM 22.4942 -68.4897 347° North 423 487 38,000  Level Miami Center
Thu 10:55:18 PM 22.6103 -68.5158 348° North 432 497 38,000  Level Miami Center
Thu 10:56:18 PM 22.7328 -68.5461 347° North 432 497 38,000  Level Miami Center
Thu 10:57:18 PM 22.8533 -68.5767 347° North 432 497 38,000  Level Miami Center
Thu 10:58:18 PM 22.9692 -68.6008 349° North 433 498 38,000  Level Miami Center
Thu 10:59:18 PM 23.0919 -68.6333 346° North 438 504 38,000  Level Miami Center
Thu 11:00:21 PM 23.2081 -68.6622 347° North 438 504 38,000  Level Miami Center
Thu 11:01:18 PM 23.3261 -68.6883 349° North 432 497 38,000  Level Miami Center
Thu 11:02:18 PM 23.4422 -68.7147 348° North 432 497 38,000  Level Miami Center
Thu 11:03:19 PM 23.5631 -68.7478 346° North 439 505 38,000  Level Miami Center
Thu 11:04:19 PM 23.6833 -68.7764 348° North 433 498 38,000  Level Miami Center
Thu 11:05:18 PM 23.7972 -68.8031 348° North 438 504 38,000  Level Miami Center
Thu 11:06:20 PM 23.9156 -68.8317 348° North 438 504 38,000  Level Miami Center
Thu 11:07:19 PM 24.0383 -68.8625 347° North 433 498 38,000  Level Miami Center
Thu 11:08:18 PM 24.1567 -68.8914 347° North 433 498 38,000  Level Miami Center
Thu 11:09:18 PM 24.2728 -68.9181 348° North 432 497 38,000  Level Miami Center
Thu 11:10:18 PM 24.3911 -68.9492 347° North 438 504 38,000  Level Miami Center
Thu 11:11:20 PM 24.5075 -68.9803 346° North 438 504 38,000  Level Miami Center
Thu 11:12:18 PM 24.6256 -69.0069 348° North 433 498 38,000  Level Miami Center
Thu 11:13:19 PM 24.7442 -69.0383 346° North 433 498 38,000  Level Miami Center
Thu 11:14:18 PM 24.8644 -69.0672 348° North 433 498 38,000  Level Miami Center
Thu 11:15:18 PM 24.9808 -69.0964 347° North 443 510 38,000  Level Miami Center
Thu 11:16:13 PM 25.0000 -69.1000 349° North 419 482 38,000  Level New York Oceanic (ODAPS)
Thu 11:31:29 PM 26.7167 -69.4500 349° North 432 497 38,000  Level New York Oceanic (ODAPS)
Fri 12:03:10 AM 30.4000 -70.2667 349° North 422 486 38,000  Level New York Oceanic (ODAPS)
Fri 12:49:27 AM 36.1983 -71.6694 348° North 453 521 38,000  Level New York Center
Fri 12:50:00 AM 36.1517 -71.6633 348° North 422 486 38,000  Level FlightAware Transoceanic
Fri 12:50:27 AM 36.3192 -71.6992 349° North 442 509 38,000  Level New York Center
Fri 12:51:00 AM 36.2666 -71.6933 348° North 422 486 38,000  Level FlightAware Transoceanic
Fri 12:51:27 AM 36.4358 -71.7292 348° North 437 503 38,000  Level New York Center
Fri 12:52:00 AM 36.3814 -71.7233 348° North 422 486 38,000  Level FlightAware Transoceanic
Fri 12:52:27 AM 36.5522 -71.7617 347° North 427 491 38,000  Level New York Center
Fri 12:53:00 AM 36.4963 -71.7534 348° North 422 486 38,000 -100 Level FlightAware Transoceanic
Fri 12:53:27 AM 36.6647 -71.7942 347° North 427 491 37,900 -69 Descending New York Center
Fri 12:54:27 AM 36.7792 -71.8244 348° North 427 491 37,900 16 Level New York Center
Fri 12:59:54 AM 37.3318 -72.1549 334° Northwest 392 451 38,000 17 Climbing FlightAware ADS-B (KWWD)
Fri 01:00:24 AM 37.3825 -72.1858 334° Northwest 398 458 38,000  Level FlightAware ADS-B (KWWD)
Fri 01:01:03 AM 37.4451 -72.2242 334° Northwest 399 459 38,000  Level FlightAware ADS-B (KWWD)
Fri 01:01:34 AM 37.4985 -72.2572 334° Northwest 409 471 38,000  Level FlightAware ADS-B (KWWD)
Fri 01:02:14 AM 37.5662 -72.2986 334° Northwest 412 474 38,000  Level FlightAware ADS-B (KWWD)
Fri 01:02:52 AM 37.6316 -72.3385 334° Northwest 413 475 38,000  Level FlightAware ADS-B (KWWD)
Fri 01:03:34 AM 37.7044 -72.3831 334° Northwest 414 476 38,000  Level FlightAware ADS-B (KWWD)
Fri 01:04:04 AM 37.7563 -72.4150 334° Northwest 413 475 38,000  Level FlightAware ADS-B (KWWD)
Fri 01:04:43 AM 37.8216 -72.4554 334° Northwest 415 478 38,000  Level FlightAware ADS-B (KWWD)
Fri 01:05:14 AM 37.8770 -72.4898 334° Northwest 414 476 38,000  Level FlightAware ADS-B (KWWD)
Fri 01:05:54 AM 37.9448 -72.5322 334° Northwest 416 479 38,000  Level FlightAware ADS-B (KWWD)
Fri 01:06:24 AM 37.9959 -72.5639 334° Northwest 417 480 38,000  Level FlightAware ADS-B (KWWD)
Fri 01:07:04 AM 38.0656 -72.6069 334° Northwest 410 472 38,000  Level FlightAware ADS-B (KWWD)
Fri 01:07:44 AM 38.1342 -72.6496 333° Northwest 411 473 38,000  Level FlightAware ADS-B (KWWD)
Fri 01:08:15 AM 38.1883 -72.6834 333° Northwest 411 473 38,000 -197 Level FlightAware ADS-B (KWWD)
Fri 01:08:45 AM 38.2403 -72.7160 334° Northwest 417 480 37,800 -696 Descending FlightAware ADS-B (KWWD)
Fri 01:09:24 AM 38.3082 -72.7584 334° Northwest 416 479 37,200 -870 Descending FlightAware ADS-B (KWWD)
Fri 01:09:54 AM 38.3575 -72.7893 334° Northwest 414 476 36,800 -885 Descending FlightAware ADS-B (KSNC)
Fri 01:10:25 AM 38.4121 -72.8233 334° Northwest 412 474 36,300 -952 Descending FlightAware ADS-B (KWWD)
Fri 01:10:57 AM 38.4651 -72.8573 333° Northwest 412 474 35,800 -985 Descending FlightAware ADS-B (KSNC)
Fri 01:11:32 AM 38.5271 -72.8962 333° Northwest 396 456 35,200 -894 Descending FlightAware ADS-B (KWWD)
Fri 01:11:44 AM 38.5244 -72.8945 334° Northwest 404 465 35,100 -977 Descending FlightAware ADS-B (KSNC)
Fri 01:12:15 AM 38.5989 -72.9419 333° Northwest 403 464 34,500 -1,082 Descending FlightAware ADS-B (KWWD)
Fri 01:12:45 AM 38.6500 -72.9749 333° Northwest 418 481 34,000 -900 Descending FlightAware ADS-B (KWWD)
Fri 01:12:55 AM 38.6663 -72.9853 334° Northwest 419 482 33,900 -1,950 Descending FlightAware ADS-B (KSNC)
Fri 01:13:25 AM 38.7187 -73.0182 333° Northwest 414 476 32,700 -2,488 Descending FlightAware ADS-B (KWWD)
Fri 01:13:36 AM 38.7378 -73.0304 334° Northwest 420 483 32,200 -2,750 Descending FlightAware ADS-B (KSNC)
Fri 01:14:13 AM 38.8011 -73.0705 334° Northwest 417 480 30,500 -2,647 Descending FlightAware ADS-B (KSNC)
Fri 01:14:44 AM 38.8542 -73.1041 334° Northwest 410 472 29,200 -2,538 Descending FlightAware ADS-B (KSNC)
Fri 01:15:05 AM 38.8909 -73.1274 333° Northwest 398 458 28,300 -2,471 Descending FlightAware ADS-B (KWWD)
Fri 01:15:35 AM 38.9413 -73.1597 333° Northwest 397 457 27,100 -2,500 Descending FlightAware ADS-B (KWWD)
Fri 01:16:05 AM 38.9910 -73.1916 333° Northwest 381 438 25,800 -2,500 Descending FlightAware ADS-B (KWWD)
Fri 01:16:35 AM 39.0365 -73.2209 333° Northwest 383 441 24,600 -2,500 Descending FlightAware ADS-B (KWWD)
Fri 01:17:05 AM 39.0848 -73.2518 333° Northwest 375 432 23,300 -2,459 Descending FlightAware ADS-B (KWWD)
Fri 01:17:36 AM 39.1323 -73.2824 333° Northwest 360 414 22,100 -2,459 Descending FlightAware ADS-B (KWWD)
Fri 01:18:06 AM 39.1782 -73.3121 333° Northwest 360 414 20,800 -2,361 Descending FlightAware ADS-B (KWWD)
Fri 01:18:37 AM 39.2219 -73.3404 333° Northwest 344 396 19,700 -2,229 Descending FlightAware ADS-B (KWWD)
Fri 01:19:16 AM 39.2785 -73.3772 333° Northwest 340 391 18,200 -2,400 Descending FlightAware ADS-B (KWWD)
Fri 01:19:47 AM 39.3203 -73.4042 333° Northwest 327 376 16,900 -2,800 Descending FlightAware ADS-B (KWWD)
Fri 01:20:16 AM 39.3633 -73.4257 351° North 361 415 15,400 -3,077 Descending FlightAware ADS-B (KWWD)
Fri 01:20:26 AM 39.3819 -73.4259 North 368 423 14,900 -2,100 Descending FlightAware ADS-B (KWWD)
Fri 01:20:56 AM 39.4321 -73.4239 North 357 411 14,000 -1,500 Descending FlightAware ADS-B (KWWD)
Fri 01:21:26 AM 39.4794 -73.4229 North 336 387 13,400 -1,200 Descending FlightAware ADS-B (KWWD)
Fri 01:21:56 AM 39.5253 -73.4219 North 308 354 12,800 -1,180 Descending FlightAware ADS-B (KWWD)
Fri 01:22:27 AM 39.5689 -73.4209 North 293 337 12,200 -1,171 Descending FlightAware ADS-B (KWWD)
Fri 01:22:37 AM 39.5818 -73.4210 358° North 292 336 12,000 -1,350 Descending FlightAware ADS-B (KWWD)
Fri 01:23:07 AM 39.6215 -73.4274 352° North 278 320 11,300 -1,217 Descending FlightAware ADS-B (KWWD)
Fri 01:23:46 AM 39.6695 -73.4356 352° North 272 313 10,600 -1,043 Descending FlightAware ADS-B (KSNC)
Fri 01:24:16 AM 39.7077 -73.4421 352° North 261 300 10,100 -1,059 Descending FlightAware ADS-B (KWWD)
Fri 01:24:37 AM 39.7338 -73.4465 352° North 261 300 9,700 -1,167 Descending FlightAware ADS-B (KWWD)
Fri 01:24:52 AM 39.7529 -73.4498 352° North 261 300 9,400 -1,000 Descending FlightAware ADS-B (KWWD)
Fri 01:25:07 AM 39.7706 -73.4528 352° North 261 300 9,200 -686 Descending FlightAware ADS-B (KWWD)
Fri 01:25:27 AM 39.7950 -73.4568 353° North 259 298 9,000 -750 Descending FlightAware ADS-B (KWWD)
Fri 01:25:47 AM 39.8190 -73.4609 353° North 259 298 8,700 -923 Descending FlightAware ADS-B (KWWD)
Fri 01:26:06 AM 39.8437 -73.4652 352° North 263 303 8,400 -514 Descending FlightAware ADS-B (KWWD)
Fri 01:29:29 AM 39.6876 -73.4388 357° North 252 290 6,800 -287 Descending FlightAware ADS-B (KSNC)
Fri 01:31:40 AM 40.2327 -73.5160 356° North 248 285 6,800 73 Level FlightAware ADS-B (KSNC)
Fri 01:32:14 AM 40.2667 -73.5167 356° North 250 288 7,000 -540 Climbing New York TRACON
Fri 01:33:20 AM 40.3500 -73.5333 351° North 241 277 5,900 -1,227 Descending New York TRACON
Fri 01:34:26 AM 40.4167 -73.5500 349° North 229 264 4,300 -1,579 Descending New York TRACON
Fri 01:35:14 AM 40.4667 -73.5500 360° North 227 261 2,900 -1,211 Descending New York TRACON
Fri 01:36:15 AM 40.5167 -73.5667 346° North 206 237 2,100 -446 Descending New York TRACON
Fri 01:37:15 AM 40.5667 -73.6000 333° Northwest 178 205 2,000 -49 Descending New York TRACON
Fri 01:38:17 AM 40.6000 -73.6500 311° West 149 171 2,000 -250 Level New York TRACON
Fri 01:39:15 AM 40.6167 -73.6833 303° West 110 127 1,500 -610 Descending New York TRACON
Fri 01:40:15 AM 40.6333 -73.7167 303° West 111 128 800 3,906 Descending New York TRACON
Fri 01:42:27 AM 40.6583 -73.7967 292° West 115 132 14,000 6,000 Climbing New York Center
Fri 01:44:00 AM 40.6398 -73.7789 144° Southeast  Level Estimated

Login

Don't have an account? Register now (free) for customized features, flight alerts, and more!